Time;durP1;ratioP1;P1;durP2;ratioP2;P2;SDS_P1;SDS_P2;PMS_P1;PMS_P2;Temp;Humidity;BMP_temperature;BMP_pressure;BME280_temperature;BME280_humidity;BME280_pressure;Samples;Min_cycle;Max_cycle;Signal;HPM_P1;HPM_P2
2024/01/20 00:01:50;;;;;;;9.10;4.70;;;;;;;;;;4396171;32;316745;-77
2024/01/20 00:04:17;;;;;;;10.27;5.03;;;;;;;;;;4395059;32;314400;-77
2024/01/20 00:06:46;;;;;;;8.90;4.80;;;;;;;;;;4374638;32;315435;-77
2024/01/20 00:09:14;;;;;;;8.87;4.83;;;;;;;;;;4403083;32;315790;-77
2024/01/20 00:11:43;;;;;;;9.83;4.07;;;;;;;;;;4399055;32;314424;-77
2024/01/20 00:14:09;;;;;;;11.10;4.07;;;;;;;;;;4405105;32;315592;-77
2024/01/20 00:16:36;;;;;;;11.27;4.23;;;;;;;;;;4384339;32;316696;-77
2024/01/20 00:19:04;;;;;;;5.27;3.90;;;;;;;;;;4388760;32;315513;-77
2024/01/20 00:21:35;;;;;;;9.77;4.73;;;;;;;;;;4405326;32;315651;-77
2024/01/20 00:24:04;;;;;;;11.07;5.57;;;;;;;;;;4396414;32;416576;-77
2024/01/20 00:26:32;;;;;;;7.70;4.53;;;;;;;;;;4400348;32;328936;-77
2024/01/20 00:29:13;;;;;;;5.57;4.17;;;;;;;;;;4389693;32;416801;-77
2024/01/20 00:31:40;;;;;;;7.20;4.30;;;;;;;;;;4399506;32;316252;-77
2024/01/20 00:34:08;;;;;;;3.87;3.23;;;;;;;;;;4390929;32;314532;-78
2024/01/20 00:36:36;;;;;;;6.60;3.30;;;;;;;;;;4376608;32;316446;-77
2024/01/20 00:39:05;;;;;;;7.97;3.90;;;;;;;;;;4398327;32;346030;-77
2024/01/20 00:41:32;;;;;;;5.37;3.50;;;;;;;;;;4408077;32;315371;-77
2024/01/20 00:43:59;;;;;;;5.67;3.47;;;;;;;;;;4356830;32;415115;-77
2024/01/20 00:46:28;;;;;;;9.27;4.00;;;;;;;;;;4398691;32;316195;-77
2024/01/20 00:48:57;;;;;;;8.93;3.77;;;;;;;;;;4376121;32;316234;-77
2024/01/20 00:51:24;;;;;;;5.47;3.60;;;;;;;;;;4390002;32;315625;-77
2024/01/20 00:53:53;;;;;;;5.70;3.50;;;;;;;;;;4391424;32;316148;-77
2024/01/20 00:56:21;;;;;;;4.53;3.53;;;;;;;;;;4407523;32;315974;-77
2024/01/20 00:58:48;;;;;;;4.17;3.10;;;;;;;;;;4367185;32;318170;-77
2024/01/20 01:01:17;;;;;;;4.47;3.30;;;;;;;;;;4394655;32;316004;-77
2024/01/20 01:03:47;;;;;;;8.00;3.83;;;;;;;;;;4372232;32;348450;-77
2024/01/20 01:06:15;;;;;;;7.27;4.50;;;;;;;;;;4393625;32;316280;-77
2024/01/20 01:08:45;;;;;;;4.07;3.13;;;;;;;;;;4395814;32;316403;-77
2024/01/20 01:11:12;;;;;;;5.13;2.93;;;;;;;;;;4406308;32;316327;-77
2024/01/20 01:13:39;;;;;;;4.80;3.20;;;;;;;;;;4387565;32;316183;-77
2024/01/20 01:16:07;;;;;;;6.73;2.93;;;;;;;;;;4398001;32;315435;-77
2024/01/20 01:18:35;;;;;;;5.40;2.63;;;;;;;;;;4391277;32;316189;-77
2024/01/20 01:21:07;;;;;;;7.27;3.30;;;;;;;;;;4387021;32;316223;-77
2024/01/20 01:23:34;;;;;;;6.90;3.27;;;;;;;;;;4377799;32;315985;-77
2024/01/20 01:26:01;;;;;;;5.77;2.93;;;;;;;;;;4392246;32;316414;-77
2024/01/20 01:28:29;;;;;;;7.23;3.97;;;;;;;;;;4383531;32;338900;-77
2024/01/20 01:30:59;;;;;;;4.90;3.47;;;;;;;;;;4364955;32;316427;-77
2024/01/20 01:33:27;;;;;;;6.93;4.03;;;;;;;;;;4387015;32;316335;-77
2024/01/20 01:35:54;;;;;;;5.50;4.40;;;;;;;;;;4375756;32;315215;-77
2024/01/20 01:38:28;;;;;;;13.57;6.73;;;;;;;;;;4393565;32;316253;-76
2024/01/20 01:40:58;;;;;;;20.93;12.17;;;;;;;;;;4377168;32;317789;-78
2024/01/20 01:43:25;;;;;;;10.50;6.47;;;;;;;;;;4404322;32;352358;-78
2024/01/20 01:45:52;;;;;;;5.53;3.83;;;;;;;;;;4398078;32;317057;-76
2024/01/20 01:48:23;;;;;;;2.90;2.70;;;;;;;;;;4407489;32;316377;-77
2024/01/20 01:50:52;;;;;;;4.97;2.70;;;;;;;;;;4390829;32;316318;-76
2024/01/20 01:53:20;;;;;;;2.53;2.00;;;;;;;;;;4407622;32;315565;-77
2024/01/20 01:55:50;;;;;;;4.53;2.53;;;;;;;;;;4397424;32;316139;-77
2024/01/20 01:58:20;;;;;;;3.83;2.53;;;;;;;;;;4408219;32;316299;-77
2024/01/20 02:00:51;;;;;;;3.80;2.50;;;;;;;;;;4379357;32;316265;-77
2024/01/20 02:03:19;;;;;;;7.10;3.00;;;;;;;;;;4405641;32;316116;-77
2024/01/20 02:05:47;;;;;;;5.50;3.53;;;;;;;;;;4397780;32;316608;-76
2024/01/20 02:08:16;;;;;;;9.07;3.90;;;;;;;;;;4404202;32;317183;-77
2024/01/20 02:10:47;;;;;;;6.83;2.80;;;;;;;;;;4396867;32;316268;-77
2024/01/20 02:13:18;;;;;;;3.17;2.33;;;;;;;;;;4408521;32;315812;-76
2024/01/20 02:15:49;;;;;;;2.93;2.23;;;;;;;;;;4401325;32;332095;-76
2024/01/20 02:18:17;;;;;;;6.37;2.47;;;;;;;;;;4411396;32;316067;-76
2024/01/20 02:20:46;;;;;;;3.73;2.60;;;;;;;;;;4396508;32;316427;-77
2024/01/20 02:23:16;;;;;;;2.13;1.83;;;;;;;;;;4394845;32;316080;-76
2024/01/20 02:25:44;;;;;;;2.37;1.63;;;;;;;;;;4388784;32;316546;-77
2024/01/20 02:28:12;;;;;;;2.40;1.53;;;;;;;;;;4410880;32;316348;-76
2024/01/20 02:30:49;;;;;;;2.03;1.43;;;;;;;;;;4398627;32;316468;-77
2024/01/20 02:33:17;;;;;;;1.90;1.60;;;;;;;;;;4409689;32;316359;-76
2024/01/20 02:35:47;;;;;;;1.57;1.40;;;;;;;;;;4396874;32;316116;-77
2024/01/20 02:38:20;;;;;;;1.90;1.50;;;;;;;;;;4411222;32;316232;-76
2024/01/20 02:40:50;;;;;;;1.67;1.57;;;;;;;;;;4392666;32;316173;-77
2024/01/20 02:43:17;;;;;;;2.07;1.70;;;;;;;;;;4408443;32;315678;-77
2024/01/20 02:45:44;;;;;;;1.97;1.77;;;;;;;;;;4401558;32;316436;-77
2024/01/20 02:48:11;;;;;;;2.00;1.40;;;;;;;;;;4402770;32;316281;-77
2024/01/20 02:50:38;;;;;;;1.67;1.47;;;;;;;;;;4399582;32;316307;-76
2024/01/20 02:53:06;;;;;;;3.00;2.10;;;;;;;;;;4402575;32;315993;-76
2024/01/20 02:55:34;;;;;;;2.40;1.40;;;;;;;;;;4401653;32;314485;-78
2024/01/20 02:58:03;;;;;;;5.40;1.50;;;;;;;;;;4375330;32;414302;-76
2024/01/20 03:00:30;;;;;;;1.60;1.40;;;;;;;;;;4410611;32;315863;-78
2024/01/20 03:02:57;;;;;;;2.00;1.23;;;;;;;;;;4391523;32;316128;-77
2024/01/20 03:05:24;;;;;;;1.90;1.37;;;;;;;;;;4410026;32;315922;-76
2024/01/20 03:07:52;;;;;;;2.20;1.40;;;;;;;;;;4385461;32;316119;-77
2024/01/20 03:10:19;;;;;;;1.53;1.43;;;;;;;;;;4408266;32;350189;-77
2024/01/20 03:12:49;;;;;;;3.10;2.20;;;;;;;;;;4393868;32;316373;-78
2024/01/20 03:15:16;;;;;;;2.90;2.07;;;;;;;;;;4404581;32;315705;-76
2024/01/20 03:17:44;;;;;;;1.60;1.40;;;;;;;;;;4398974;32;316215;-76
2024/01/20 03:20:12;;;;;;;1.30;1.20;;;;;;;;;;4409644;32;316065;-76
2024/01/20 03:22:39;;;;;;;1.87;1.60;;;;;;;;;;4397586;32;317458;-77
2024/01/20 03:25:08;;;;;;;1.40;1.30;;;;;;;;;;4401293;32;316017;-77
2024/01/20 03:27:38;;;;;;;1.83;1.63;;;;;;;;;;4391845;32;315732;-77
2024/01/20 03:30:11;;;;;;;1.60;1.50;;;;;;;;;;4409412;32;316237;-76
2024/01/20 03:32:39;;;;;;;1.67;1.57;;;;;;;;;;4394409;32;315705;-76
2024/01/20 03:35:13;;;;;;;1.80;1.70;;;;;;;;;;4404608;32;316548;-76
2024/01/20 03:37:40;;;;;;;2.63;1.60;;;;;;;;;;4399423;32;316192;-76
2024/01/20 03:40:10;;;;;;;1.40;1.30;;;;;;;;;;4409017;32;315773;-77
2024/01/20 03:42:39;;;;;;;5.57;3.47;;;;;;;;;;4397682;32;316357;-76
2024/01/20 03:45:07;;;;;;;14.90;7.00;;;;;;;;;;4401225;32;315715;-78
2024/01/20 03:47:35;;;;;;;2.07;1.70;;;;;;;;;;4399952;32;317081;-78
2024/01/20 03:50:05;;;;;;;4.40;3.07;;;;;;;;;;4410358;32;315760;-77
2024/01/20 03:52:33;;;;;;;6.07;3.60;;;;;;;;;;4408247;32;335742;-77
2024/01/20 03:55:05;;;;;;;6.27;2.60;;;;;;;;;;4389099;32;415272;-77
2024/01/20 03:57:33;;;;;;;4.93;3.40;;;;;;;;;;4406858;32;314342;-77
2024/01/20 04:00:00;;;;;;;4.27;3.47;;;;;;;;;;4397316;32;413528;-76
2024/01/20 04:02:28;;;;;;;4.13;2.20;;;;;;;;;;4388567;32;316234;-76
2024/01/20 04:05:19;;;;;;;3.17;2.40;;;;;;;;;;4391642;32;315619;-76
2024/01/20 04:07:47;;;;;;;2.60;2.40;;;;;;;;;;4381512;32;315049;-77
2024/01/20 04:10:17;;;;;;;2.43;1.70;;;;;;;;;;4392753;32;316333;-77
2024/01/20 04:12:47;;;;;;;1.83;1.67;;;;;;;;;;4377357;32;319228;-78
2024/01/20 04:15:17;;;;;;;1.80;1.63;;;;;;;;;;4394254;32;315601;-78
2024/01/20 04:17:45;;;;;;;2.50;2.20;;;;;;;;;;4383214;32;316014;-76
2024/01/20 04:20:14;;;;;;;6.27;2.03;;;;;;;;;;4394599;32;315788;-76
2024/01/20 04:22:41;;;;;;;5.20;1.93;;;;;;;;;;4383827;32;314424;-76
2024/01/20 04:25:09;;;;;;;2.57;1.90;;;;;;;;;;4392401;32;316075;-78
2024/01/20 04:27:40;;;;;;;6.37;3.80;;;;;;;;;;4379455;32;316015;-77
2024/01/20 04:30:10;;;;;;;7.10;4.63;;;;;;;;;;4394146;32;315665;-78
2024/01/20 04:32:37;;;;;;;1.90;1.73;;;;;;;;;;4380343;32;377864;-78
2024/01/20 04:35:07;;;;;;;1.77;1.40;;;;;;;;;;4386802;32;315737;-77
2024/01/20 04:37:38;;;;;;;2.73;2.00;;;;;;;;;;4361742;32;381937;-77
2024/01/20 04:40:06;;;;;;;2.67;1.80;;;;;;;;;;4386472;32;315347;-77
2024/01/20 04:42:34;;;;;;;2.47;2.17;;;;;;;;;;4373572;32;349732;-77
2024/01/20 04:45:03;;;;;;;2.33;1.93;;;;;;;;;;4373691;32;416852;-77
2024/01/20 04:47:33;;;;;;;2.93;1.90;;;;;;;;;;4401236;32;316291;-77
2024/01/20 04:50:01;;;;;;;2.47;1.73;;;;;;;;;;4396323;32;416912;-76
2024/01/20 04:52:29;;;;;;;5.87;2.70;;;;;;;;;;4398823;32;315563;-76
2024/01/20 04:54:59;;;;;;;2.83;2.07;;;;;;;;;;4337636;32;316400;-77
2024/01/20 04:57:28;;;;;;;3.20;2.53;;;;;;;;;;4360200;32;316113;-76
2024/01/20 04:59:57;;;;;;;3.23;2.47;;;;;;;;;;4351270;32;316090;-76
2024/01/20 05:02:25;;;;;;;4.57;3.07;;;;;;;;;;4359666;32;315641;-76
2024/01/20 05:04:52;;;;;;;7.03;2.90;;;;;;;;;;4329969;32;315140;-77
2024/01/20 05:07:22;;;;;;;7.00;3.10;;;;;;;;;;4361604;32;316131;-76
2024/01/20 05:09:49;;;;;;;4.57;3.40;;;;;;;;;;4352414;32;315590;-79
2024/01/20 05:12:17;;;;;;;2.47;2.27;;;;;;;;;;4359369;32;316382;-77
2024/01/20 05:14:45;;;;;;;2.47;1.90;;;;;;;;;;4346908;32;346422;-78
2024/01/20 05:17:12;;;;;;;3.57;2.57;;;;;;;;;;4359843;32;315363;-76
2024/01/20 05:19:41;;;;;;;3.90;2.00;;;;;;;;;;4352252;32;316591;-76
2024/01/20 05:22:08;;;;;;;4.63;2.50;;;;;;;;;;4351949;32;315213;-76
2024/01/20 05:24:35;;;;;;;7.20;3.60;;;;;;;;;;4347487;32;315825;-77
2024/01/20 05:27:03;;;;;;;4.70;3.10;;;;;;;;;;4353112;32;315558;-78
2024/01/20 05:29:34;;;;;;;5.37;3.27;;;;;;;;;;4361061;32;315353;-78
2024/01/20 05:32:02;;;;;;;2.37;1.77;;;;;;;;;;4347798;32;415603;-77
2024/01/20 05:34:29;;;;;;;3.27;2.00;;;;;;;;;;4358132;32;315511;-77
2024/01/20 05:36:56;;;;;;;3.27;1.60;;;;;;;;;;4344069;32;315916;-76
2024/01/20 05:39:24;;;;;;;3.10;2.03;;;;;;;;;;4359940;32;314443;-76
2024/01/20 05:41:51;;;;;;;5.07;2.30;;;;;;;;;;4351821;32;315673;-77
2024/01/20 05:44:17;;;;;;;3.90;2.23;;;;;;;;;;4364361;32;316026;-77
2024/01/20 05:46:47;;;;;;;4.40;3.53;;;;;;;;;;4341383;32;316051;-76
2024/01/20 05:49:15;;;;;;;5.37;4.00;;;;;;;;;;4343511;32;315791;-77
2024/01/20 05:51:43;;;;;;;9.53;5.47;;;;;;;;;;4338584;32;326823;-77
2024/01/20 05:54:10;;;;;;;6.07;4.77;;;;;;;;;;4346972;32;316259;-78
2024/01/20 05:56:38;;;;;;;6.90;4.73;;;;;;;;;;4340897;32;353141;-77
2024/01/20 05:59:06;;;;;;;9.73;6.27;;;;;;;;;;4354847;32;315331;-77
2024/01/20 06:01:32;;;;;;;4.63;3.40;;;;;;;;;;4362410;32;316149;-77
2024/01/20 06:04:03;;;;;;;5.03;3.60;;;;;;;;;;4330834;32;371893;-77
2024/01/20 06:06:34;;;;;;;5.90;3.93;;;;;;;;;;4343961;32;315654;-76
2024/01/20 06:09:02;;;;;;;5.83;4.37;;;;;;;;;;4323095;32;415596;-77
2024/01/20 06:11:30;;;;;;;3.00;2.20;;;;;;;;;;4346749;32;350512;-76
2024/01/20 06:13:57;;;;;;;3.37;3.07;;;;;;;;;;4336276;32;347202;-76
2024/01/20 06:16:29;;;;;;;4.93;3.27;;;;;;;;;;4348864;32;316167;-78
2024/01/20 06:18:59;;;;;;;6.47;4.53;;;;;;;;;;4343243;32;315907;-76
2024/01/20 06:21:29;;;;;;;9.90;5.80;;;;;;;;;;4362595;32;314313;-77
2024/01/20 06:23:57;;;;;;;5.83;3.90;;;;;;;;;;4352486;32;316325;-77
2024/01/20 06:26:24;;;;;;;9.30;3.93;;;;;;;;;;4362785;32;316008;-77
2024/01/20 06:28:51;;;;;;;4.37;3.13;;;;;;;;;;4347531;32;316001;-78
2024/01/20 06:31:25;;;;;;;4.93;3.30;;;;;;;;;;4362581;32;315577;-77
2024/01/20 06:33:53;;;;;;;12.23;8.00;;;;;;;;;;4351270;32;316193;-77
2024/01/20 06:36:25;;;;;;;7.57;5.37;;;;;;;;;;4361390;32;317104;-78
2024/01/20 06:38:53;;;;;;;12.27;8.73;;;;;;;;;;4345178;32;316297;-78
2024/01/20 06:41:22;;;;;;;9.20;6.00;;;;;;;;;;4362987;32;317176;-77
2024/01/20 06:43:51;;;;;;;11.63;6.20;;;;;;;;;;4318988;32;315323;-79
2024/01/20 06:46:21;;;;;;;20.40;11.03;;;;;;;;;;4342933;32;316112;-77
2024/01/20 06:48:48;;;;;;;37.87;18.13;;;;;;;;;;4344357;32;318317;-78
2024/01/20 06:51:16;;;;;;;24.43;14.07;;;;;;;;;;4363266;32;317651;-77
2024/01/20 06:53:44;;;;;;;15.30;8.57;;;;;;;;;;4349839;32;317612;-78
2024/01/20 06:56:26;;;;;;;7.40;5.50;;;;;;;;;;4353225;32;316555;-77
2024/01/20 06:58:53;;;;;;;11.57;7.10;;;;;;;;;;4343891;32;315650;-78
2024/01/20 07:01:20;;;;;;;12.70;7.07;;;;;;;;;;4355400;32;316697;-78
2024/01/20 07:03:48;;;;;;;12.27;8.63;;;;;;;;;;4353045;32;316653;-78
2024/01/20 07:06:15;;;;;;;13.80;7.80;;;;;;;;;;4358561;32;316480;-78
2024/01/20 07:08:45;;;;;;;13.07;7.90;;;;;;;;;;4335737;32;317203;-78
2024/01/20 07:11:13;;;;;;;8.13;5.33;;;;;;;;;;4360120;32;315676;-78
2024/01/20 07:13:41;;;;;;;11.80;6.60;;;;;;;;;;4364684;32;315354;-78
2024/01/20 07:16:10;;;;;;;7.13;3.97;;;;;;;;;;4400904;32;317011;-78
2024/01/20 07:18:41;;;;;;;7.90;4.90;;;;;;;;;;4405758;32;315666;-78
2024/01/20 07:21:09;;;;;;;10.23;6.23;;;;;;;;;;4349082;32;316113;-77
2024/01/20 07:23:35;;;;;;;15.30;7.53;;;;;;;;;;4351958;32;316835;-77
2024/01/20 07:26:02;;;;;;;7.93;5.23;;;;;;;;;;4358749;32;317194;-76
2024/01/20 07:28:32;;;;;;;7.13;5.23;;;;;;;;;;4360753;32;316004;-79
2024/01/20 07:31:00;;;;;;;14.37;8.73;;;;;;;;;;4336827;32;415669;-77
2024/01/20 07:33:26;;;;;;;9.83;6.83;;;;;;;;;;4387976;32;315828;-78
2024/01/20 07:35:53;;;;;;;17.67;9.37;;;;;;;;;;4396301;32;316133;-75
2024/01/20 07:38:21;;;;;;;37.07;18.70;;;;;;;;;;4397452;32;316562;-77
2024/01/20 07:40:48;;;;;;;21.47;13.83;;;;;;;;;;4393511;32;317292;-78
2024/01/20 07:43:16;;;;;;;18.60;12.90;;;;;;;;;;4399001;32;318289;-76
2024/01/20 07:45:45;;;;;;;15.97;10.13;;;;;;;;;;4395572;32;318198;-76
2024/01/20 07:48:12;;;;;;;16.43;10.07;;;;;;;;;;4408102;32;317960;-76
2024/01/20 07:50:40;;;;;;;19.80;12.00;;;;;;;;;;4375994;32;317629;-76
2024/01/20 07:53:10;;;;;;;17.23;12.57;;;;;;;;;;4384249;32;316497;-78
2024/01/20 07:55:41;;;;;;;18.27;13.83;;;;;;;;;;4389998;32;317588;-77
2024/01/20 07:58:08;;;;;;;14.73;10.90;;;;;;;;;;4408907;32;317662;-78
2024/01/20 08:00:35;;;;;;;20.67;12.57;;;;;;;;;;4383081;32;317633;-79
2024/01/20 08:03:12;;;;;;;23.43;11.07;;;;;;;;;;4360583;32;317572;-76
2024/01/20 08:05:42;;;;;;;22.57;12.07;;;;;;;;;;4391477;32;317645;-76
2024/01/20 08:08:11;;;;;;;29.30;15.73;;;;;;;;;;4408324;32;317776;-76
2024/01/20 08:10:40;;;;;;;16.60;10.77;;;;;;;;;;4399680;32;318224;-76
2024/01/20 08:13:09;;;;;;;22.07;12.50;;;;;;;;;;4391110;32;317564;-76
2024/01/20 08:15:49;;;;;;;14.37;9.73;;;;;;;;;;4390656;32;318142;-75
2024/01/20 08:18:20;;;;;;;14.63;10.13;;;;;;;;;;4409284;32;315632;-77
2024/01/20 08:20:51;;;;;;;13.30;7.63;;;;;;;;;;4384336;32;317741;-76
2024/01/20 08:23:21;;;;;;;11.97;7.33;;;;;;;;;;4399896;32;315567;-76
2024/01/20 08:25:49;;;;;;;12.77;8.20;;;;;;;;;;4363137;32;316181;-76
2024/01/20 08:28:21;;;;;;;11.77;7.70;;;;;;;;;;4381686;32;316540;-77
2024/01/20 08:30:54;;;;;;;11.73;6.53;;;;;;;;;;4369658;32;316745;-76
2024/01/20 08:33:26;;;;;;;8.97;6.97;;;;;;;;;;4416859;32;315470;-76
2024/01/20 08:35:57;;;;;;;16.40;9.30;;;;;;;;;;4405017;32;314171;-76
2024/01/20 08:38:25;;;;;;;16.73;11.07;;;;;;;;;;4413347;32;316155;-76
2024/01/20 08:40:55;;;;;;;20.50;12.07;;;;;;;;;;4366248;32;316464;-76
2024/01/20 08:43:23;;;;;;;9.93;7.57;;;;;;;;;;4403909;32;318277;-77
2024/01/20 08:45:51;;;;;;;12.03;7.90;;;;;;;;;;4410859;32;315950;-76
2024/01/20 08:48:19;;;;;;;10.40;8.00;;;;;;;;;;4415086;32;315210;-77
2024/01/20 08:50:50;;;;;;;17.20;10.57;;;;;;;;;;4391167;32;344598;-80
2024/01/20 08:53:17;;;;;;;19.93;13.60;;;;;;;;;;4401822;32;316531;-77
2024/01/20 08:55:47;;;;;;;14.93;9.97;;;;;;;;;;4389304;32;317669;-78
2024/01/20 08:58:18;;;;;;;13.17;10.10;;;;;;;;;;4393836;32;317409;-78
2024/01/20 09:00:47;;;;;;;15.17;10.80;;;;;;;;;;4376051;32;317644;-78
2024/01/20 09:03:17;;;;;;;12.33;9.63;;;;;;;;;;4389460;32;352245;-78
2024/01/20 09:05:44;;;;;;;21.93;16.70;;;;;;;;;;4384605;32;317333;-79
2024/01/20 09:08:26;;;;;;;15.63;10.97;;;;;;;;;;4395637;32;316562;-78
2024/01/20 09:10:53;;;;;;;18.73;11.57;;;;;;;;;;4383371;32;316704;-77
2024/01/20 09:13:20;;;;;;;20.67;12.33;;;;;;;;;;4409093;32;317583;-77
2024/01/20 09:15:48;;;;;;;22.00;14.00;;;;;;;;;;4379652;32;317831;-77
2024/01/20 09:18:19;;;;;;;19.17;10.67;;;;;;;;;;4398714;32;317758;-78
2024/01/20 09:20:48;;;;;;;25.07;14.10;;;;;;;;;;4385249;32;338017;-77
2024/01/20 09:23:19;;;;;;;20.67;12.20;;;;;;;;;;4392279;32;317654;-77
2024/01/20 09:25:57;;;;;;;22.67;13.63;;;;;;;;;;4381953;32;317639;-78
2024/01/20 09:28:28;;;;;;;29.33;16.37;;;;;;;;;;4391708;32;317762;-77
2024/01/20 09:30:58;;;;;;;20.83;13.07;;;;;;;;;;4365724;32;336149;-77
2024/01/20 09:33:26;;;;;;;30.87;18.37;;;;;;;;;;4391968;32;317350;-77
2024/01/20 09:35:55;;;;;;;46.03;30.67;;;;;;;;;;4381958;32;317908;-77
2024/01/20 09:38:26;;;;;;;24.67;14.73;;;;;;;;;;4390639;32;317414;-78
2024/01/20 09:41:01;;;;;;;18.07;11.17;;;;;;;;;;4368494;32;317596;-77
2024/01/20 09:43:32;;;;;;;21.73;14.13;;;;;;;;;;4394952;32;316938;-77
2024/01/20 09:46:00;;;;;;;30.13;19.40;;;;;;;;;;4365526;32;316753;-77
2024/01/20 09:48:28;;;;;;;25.73;13.40;;;;;;;;;;4377011;32;318179;-78
2024/01/20 09:50:55;;;;;;;19.47;11.37;;;;;;;;;;4368885;32;317837;-77
2024/01/20 09:53:25;;;;;;;43.10;16.50;;;;;;;;;;4383829;32;317528;-77
2024/01/20 09:55:55;;;;;;;39.03;21.73;;;;;;;;;;4383578;32;354652;-78
2024/01/20 09:58:24;;;;;;;14.70;8.70;;;;;;;;;;4392161;32;317465;-77
2024/01/20 10:00:53;;;;;;;17.47;9.63;;;;;;;;;;4383996;32;316988;-77
2024/01/20 10:03:21;;;;;;;27.33;15.13;;;;;;;;;;4406194;32;317357;-77
2024/01/20 10:05:48;;;;;;;31.70;17.67;;;;;;;;;;4396790;32;318432;-77
2024/01/20 10:08:15;;;;;;;17.37;10.93;;;;;;;;;;4403914;32;317803;-78
2024/01/20 10:10:44;;;;;;;34.50;17.73;;;;;;;;;;4395158;32;318175;-78
2024/01/20 10:13:14;;;;;;;14.67;10.07;;;;;;;;;;4403580;32;317295;-77
2024/01/20 10:15:41;;;;;;;44.23;21.10;;;;;;;;;;4387877;32;317692;-79
2024/01/20 10:18:10;;;;;;;17.67;11.20;;;;;;;;;;4395408;32;318315;-78
2024/01/20 10:20:38;;;;;;;23.73;14.60;;;;;;;;;;4398115;32;318128;-78
2024/01/20 10:23:07;;;;;;;29.07;18.00;;;;;;;;;;4398204;32;317530;-77
2024/01/20 10:25:34;;;;;;;12.63;8.73;;;;;;;;;;4398834;32;319286;-77
2024/01/20 10:28:03;;;;;;;12.27;7.70;;;;;;;;;;4407697;32;316474;-78
2024/01/20 10:30:30;;;;;;;7.47;5.80;;;;;;;;;;4387413;32;317208;-77
2024/01/20 10:33:00;;;;;;;17.53;8.80;;;;;;;;;;4393123;32;315987;-77
2024/01/20 10:35:28;;;;;;;21.93;12.67;;;;;;;;;;4408341;32;345826;-77
2024/01/20 10:38:01;;;;;;;13.93;8.73;;;;;;;;;;4399064;32;317693;-78
2024/01/20 10:40:28;;;;;;;12.73;6.87;;;;;;;;;;4402799;32;316432;-77
2024/01/20 10:42:57;;;;;;;7.43;5.63;;;;;;;;;;4390739;32;317440;-78
2024/01/20 10:45:26;;;;;;;18.77;10.43;;;;;;;;;;4405532;32;333126;-78
2024/01/20 10:48:05;;;;;;;16.20;9.60;;;;;;;;;;4392035;32;318450;-78
2024/01/20 10:50:35;;;;;;;17.90;10.50;;;;;;;;;;4376047;32;317339;-79
2024/01/20 10:53:04;;;;;;;12.13;9.23;;;;;;;;;;4375001;32;418706;-78
2024/01/20 10:55:33;;;;;;;22.70;10.30;;;;;;;;;;4393105;32;317382;-78
2024/01/20 10:58:02;;;;;;;41.23;23.63;;;;;;;;;;4380938;32;419030;-77
2024/01/20 11:00:31;;;;;;;14.67;9.97;;;;;;;;;;4394466;32;318323;-78
2024/01/20 11:02:59;;;;;;;26.27;11.43;;;;;;;;;;4376368;32;317040;-77
2024/01/20 11:05:28;;;;;;;19.27;12.10;;;;;;;;;;4393587;32;317780;-78
2024/01/20 11:08:12;;;;;;;24.10;15.07;;;;;;;;;;4400565;32;317772;-78
2024/01/20 11:10:40;;;;;;;29.80;17.30;;;;;;;;;;4398263;32;318590;-77
2024/01/20 11:13:08;;;;;;;9.77;7.27;;;;;;;;;;4384483;32;318179;-78
2024/01/20 11:15:39;;;;;;;24.95;16.80;;;;;;;;;;4383150;32;316296;-78
2024/01/20 11:18:17;;;;;;;12.27;8.47;;;;;;;;;;4394869;32;318404;-77
2024/01/20 11:20:54;;;;;;;8.53;6.03;;;;;;;;;;4377691;32;317394;-77
2024/01/20 11:23:24;;;;;;;8.77;6.10;;;;;;;;;;4384819;32;315362;-77
2024/01/20 11:25:52;;;;;;;6.90;4.70;;;;;;;;;;4396972;32;316335;-78
2024/01/20 11:28:27;;;;;;;5.03;4.13;;;;;;;;;;4410194;32;315635;-77
2024/01/20 11:30:55;;;;;;;6.97;4.60;;;;;;;;;;4383645;32;318133;-77
2024/01/20 11:33:24;;;;;;;8.80;5.97;;;;;;;;;;4407884;32;315345;-77
2024/01/20 11:35:53;;;;;;;7.00;4.47;;;;;;;;;;4385629;32;316004;-78
2024/01/20 11:38:19;;;;;;;6.43;3.90;;;;;;;;;;4394428;32;314385;-78
2024/01/20 11:40:57;;;;;;;7.27;5.03;;;;;;;;;;4376007;32;322569;-78
2024/01/20 11:43:24;;;;;;;8.63;5.40;;;;;;;;;;4394049;32;316197;-77
2024/01/20 11:45:52;;;;;;;11.47;7.10;;;;;;;;;;4383504;32;316102;-79
2024/01/20 11:48:23;;;;;;;9.40;5.60;;;;;;;;;;4379205;32;317049;-78
2024/01/20 11:50:52;;;;;;;9.27;5.70;;;;;;;;;;4369727;32;315856;-79
2024/01/20 11:53:21;;;;;;;10.70;5.37;;;;;;;;;;4406524;32;314580;-78
2024/01/20 11:55:55;;;;;;;6.53;4.90;;;;;;;;;;4395412;32;316672;-78
2024/01/20 11:58:23;;;;;;;6.40;4.97;;;;;;;;;;4404742;32;316203;-77
2024/01/20 12:00:51;;;;;;;16.00;7.33;;;;;;;;;;4388805;32;314773;-78
2024/01/20 12:03:29;;;;;;;12.73;7.50;;;;;;;;;;4406953;32;316532;-78
2024/01/20 12:05:57;;;;;;;7.07;5.07;;;;;;;;;;4388991;32;316974;-78
2024/01/20 12:08:27;;;;;;;9.57;6.50;;;;;;;;;;4408019;32;314681;-78
2024/01/20 12:10:56;;;;;;;7.17;5.60;;;;;;;;;;4366305;32;338394;-77
2024/01/20 12:13:25;;;;;;;9.60;6.60;;;;;;;;;;4401521;32;316268;-77
2024/01/20 12:15:53;;;;;;;11.97;7.60;;;;;;;;;;4375369;32;316706;-78
2024/01/20 12:18:26;;;;;;;24.67;11.93;;;;;;;;;;4407953;32;316712;-78
2024/01/20 12:20:54;;;;;;;9.57;6.20;;;;;;;;;;4365484;32;318172;-77
2024/01/20 12:23:23;;;;;;;14.43;9.77;;;;;;;;;;4395847;32;316308;-77
2024/01/20 12:25:53;;;;;;;8.00;5.60;;;;;;;;;;4379656;32;342046;-77
2024/01/20 12:28:21;;;;;;;13.60;8.67;;;;;;;;;;4389687;32;314336;-78
2024/01/20 12:30:50;;;;;;;10.57;7.07;;;;;;;;;;4386988;32;317436;-78
2024/01/20 12:33:17;;;;;;;8.70;5.40;;;;;;;;;;4405743;32;316801;-78
2024/01/20 12:35:46;;;;;;;6.80;5.40;;;;;;;;;;4392036;32;315643;-78
2024/01/20 12:38:13;;;;;;;8.97;7.63;;;;;;;;;;4406793;32;314685;-79
2024/01/20 12:40:42;;;;;;;12.03;7.97;;;;;;;;;;4391810;32;315258;-78
2024/01/20 12:43:12;;;;;;;12.87;8.63;;;;;;;;;;4387665;32;323077;-77
2024/01/20 12:45:42;;;;;;;22.63;14.23;;;;;;;;;;4391223;32;316614;-78
2024/01/20 12:48:12;;;;;;;28.27;17.13;;;;;;;;;;4391154;32;318400;-78
2024/01/20 12:50:40;;;;;;;12.03;8.53;;;;;;;;;;4394448;32;385825;-78
2024/01/20 12:53:08;;;;;;;12.63;8.77;;;;;;;;;;4400582;32;348734;-78
2024/01/20 12:55:38;;;;;;;25.30;13.93;;;;;;;;;;4403584;32;317066;-78
2024/01/20 12:58:06;;;;;;;27.60;15.87;;;;;;;;;;4408621;32;317795;-77
2024/01/20 13:00:33;;;;;;;32.80;17.53;;;;;;;;;;4408397;32;317506;-78
2024/01/20 13:03:00;;;;;;;17.53;10.53;;;;;;;;;;4389823;32;417827;-78
2024/01/20 13:05:32;;;;;;;59.27;27.67;;;;;;;;;;4405828;32;317801;-78
2024/01/20 13:08:03;;;;;;;18.07;10.43;;;;;;;;;;4399227;32;318228;-78
2024/01/20 13:10:46;;;;;;;14.97;8.33;;;;;;;;;;4404424;32;318456;-77
2024/01/20 13:13:24;;;;;;;15.90;10.13;;;;;;;;;;4382954;32;389118;-78
2024/01/20 13:15:51;;;;;;;17.27;8.73;;;;;;;;;;4380485;32;318424;-77
2024/01/20 13:18:21;;;;;;;18.20;8.97;;;;;;;;;;4390828;32;352877;-77
2024/01/20 13:20:51;;;;;;;19.73;9.27;;;;;;;;;;4377487;32;317278;-77
2024/01/20 13:23:19;;;;;;;14.53;7.57;;;;;;;;;;4392911;32;317391;-77
2024/01/20 13:25:48;;;;;;;19.20;8.47;;;;;;;;;;4383510;32;317328;-77
2024/01/20 13:28:19;;;;;;;7.23;5.33;;;;;;;;;;4394706;32;358257;-78
2024/01/20 13:30:51;;;;;;;20.27;10.37;;;;;;;;;;4375684;32;315953;-78
2024/01/20 13:33:19;;;;;;;14.00;7.37;;;;;;;;;;4393244;32;318229;-78
2024/01/20 13:35:47;;;;;;;7.90;5.63;;;;;;;;;;4373426;32;317059;-77
2024/01/20 13:38:17;;;;;;;8.57;6.17;;;;;;;;;;4397410;32;316404;-78
2024/01/20 13:40:47;;;;;;;8.53;5.90;;;;;;;;;;4391980;32;316165;-77
2024/01/20 13:43:14;;;;;;;8.63;6.80;;;;;;;;;;4406266;32;342050;-78
2024/01/20 13:45:43;;;;;;;10.37;7.07;;;;;;;;;;4389157;32;347664;-79
2024/01/20 13:48:12;;;;;;;7.23;5.53;;;;;;;;;;4394763;32;317152;-77
2024/01/20 13:50:40;;;;;;;6.70;4.53;;;;;;;;;;4398324;32;316236;-79
2024/01/20 13:53:08;;;;;;;5.60;4.57;;;;;;;;;;4380450;32;316121;-79
2024/01/20 13:55:36;;;;;;;5.53;4.47;;;;;;;;;;4388289;32;376257;-78
2024/01/20 13:58:08;;;;;;;9.30;4.83;;;;;;;;;;4393138;32;315885;-78
2024/01/20 14:00:37;;;;;;;10.13;4.80;;;;;;;;;;4402604;32;315392;-78
2024/01/20 14:03:14;;;;;;;7.30;5.00;;;;;;;;;;4387777;32;416965;-78
2024/01/20 14:05:52;;;;;;;17.90;6.40;;;;;;;;;;4375864;32;316015;-78
2024/01/20 14:08:23;;;;;;;5.50;4.30;;;;;;;;;;4395065;32;321407;-78
2024/01/20 14:10:59;;;;;;;7.73;5.57;;;;;;;;;;4391349;32;316277;-77
2024/01/20 14:13:41;;;;;;;9.67;6.03;;;;;;;;;;4401591;32;316066;-77
2024/01/20 14:16:11;;;;;;;6.17;4.60;;;;;;;;;;4396901;32;416380;-78
2024/01/20 14:18:38;;;;;;;9.27;5.70;;;;;;;;;;4398976;32;316031;-77
2024/01/20 14:21:08;;;;;;;7.77;5.20;;;;;;;;;;4402389;32;316275;-77
2024/01/20 14:23:37;;;;;;;12.70;7.97;;;;;;;;;;4392239;32;315568;-77
2024/01/20 14:26:07;;;;;;;9.97;5.77;;;;;;;;;;4398417;32;317285;-77
2024/01/20 14:28:36;;;;;;;6.63;5.67;;;;;;;;;;4402361;32;315588;-77
2024/01/20 14:31:03;;;;;;;10.30;6.73;;;;;;;;;;4391175;32;417030;-77
2024/01/20 14:33:31;;;;;;;9.53;6.90;;;;;;;;;;4407657;32;343662;-77